createdAt,value
2019-02-18T00:01:58.336Z,46.73
2019-02-18T00:04:38.282Z,45.10
2019-02-18T00:07:18.171Z,51.75
2019-02-18T00:09:58.101Z,42.27
2019-02-18T00:12:38.148Z,42.05
2019-02-18T00:15:20.505Z,44.53
2019-02-18T00:18:00.539Z,41.98
2019-02-18T00:20:40.323Z,39.20
2019-02-18T00:23:20.478Z,39.05
2019-02-18T00:25:59.667Z,41.40
2019-02-18T00:28:40.147Z,35.83
2019-02-18T00:31:19.869Z,36.13
2019-02-18T00:34:00.436Z,37.25
2019-02-18T00:36:43.530Z,37.28
2019-02-18T00:39:23.992Z,33.45
2019-02-18T00:42:04.096Z,32.90
2019-02-18T00:44:43.770Z,37.55
2019-02-18T00:47:23.056Z,27.70
2019-02-18T00:50:03.211Z,33.15
2019-02-18T00:52:42.393Z,31.62
2019-02-18T00:55:21.913Z,37.75
2019-02-18T00:58:01.157Z,35.60
2019-02-18T01:00:59.702Z,34.92
2019-02-18T01:03:39.269Z,30.80
2019-02-18T01:06:18.393Z,30.37
2019-02-18T01:09:00.447Z,27.50
2019-02-18T01:11:40.393Z,31.35
2019-02-18T01:14:19.603Z,28.67
2019-02-18T01:16:59.408Z,30.70
2019-02-18T01:19:39.696Z,27.93
2019-02-18T01:22:20.872Z,33.25
2019-02-18T01:25:00.963Z,42.17
2019-02-18T01:27:40.948Z,30.62
2019-02-18T01:30:20.497Z,28.50
2019-02-18T01:32:59.862Z,28.15
2019-02-18T01:35:39.934Z,29.10
2019-02-18T01:38:23.811Z,29.80
2019-02-18T01:41:03.618Z,41.63
2019-02-18T01:43:44.623Z,36.15
2019-02-18T01:46:25.134Z,39.23
2019-02-18T01:49:05.053Z,34.98
2019-02-18T01:51:45.091Z,36.10
2019-02-18T01:54:25.032Z,38.35
2019-02-18T01:57:05.244Z,38.25
2019-02-18T01:59:45.474Z,39.33
2019-02-18T02:02:25.526Z,36.40
2019-02-18T02:05:06.149Z,44.85
2019-02-18T02:07:55.438Z,35.83
2019-02-18T02:10:27.905Z,40.95
2019-02-18T02:13:30.983Z,37.13
2019-02-18T02:16:16.202Z,39.55
2019-02-18T02:18:56.020Z,37.83
2019-02-18T02:21:36.100Z,40.00
2019-02-18T02:24:15.899Z,37.75
2019-02-18T02:27:15.392Z,40.38
2019-02-18T02:29:55.162Z,34.03
2019-02-18T02:32:35.999Z,37.75
2019-02-18T02:35:16.247Z,35.40
2019-02-18T02:38:06.973Z,36.70
2019-02-18T02:40:37.307Z,33.00
2019-02-18T02:43:17.299Z,39.10
2019-02-18T02:45:57.023Z,43.83
2019-02-18T02:48:37.157Z,44.77
2019-02-18T02:51:16.628Z,40.13
2019-02-18T02:53:56.891Z,38.00
2019-02-18T02:56:38.798Z,38.67
2019-02-18T02:59:18.384Z,42.78
2019-02-18T03:01:57.690Z,36.53
2019-02-18T03:04:37.468Z,43.83
2019-02-18T03:07:17.275Z,40.83
2019-02-18T03:09:57.532Z,36.70
2019-02-18T03:12:37.608Z,36.80
2019-02-18T03:15:17.622Z,36.77
2019-02-18T03:17:58.442Z,35.68
2019-02-18T03:20:37.834Z,37.40
2019-02-18T03:23:17.122Z,34.48
2019-02-18T03:25:57.485Z,31.57
2019-02-18T03:29:15.292Z,33.85
2019-02-18T03:31:54.655Z,31.33
2019-02-18T03:34:44.307Z,38.03
2019-02-18T03:37:23.645Z,29.30
2019-02-18T03:40:02.926Z,30.68
2019-02-18T03:42:43.028Z,26.95
2019-02-18T03:45:22.908Z,28.55
2019-02-18T03:48:02.263Z,25.90
2019-02-18T03:50:42.368Z,25.12
2019-02-18T03:53:22.864Z,22.87
2019-02-18T03:56:02.788Z,22.52
2019-02-18T03:58:42.130Z,26.70
2019-02-18T04:01:21.426Z,24.73
2019-02-18T04:04:01.408Z,31.07
2019-02-18T04:06:40.997Z,27.65
2019-02-18T04:09:21.123Z,29.77
2019-02-18T04:12:00.740Z,28.60
2019-02-18T04:14:40.102Z,30.25
2019-02-18T04:17:19.593Z,36.38
2019-02-18T04:20:01.858Z,29.97
2019-02-18T04:22:41.008Z,33.28
2019-02-18T04:25:21.128Z,33.50
2019-02-18T04:28:00.334Z,31.85
2019-02-18T04:30:39.606Z,33.63
2019-02-18T04:33:19.035Z,34.10
2019-02-18T04:35:58.574Z,35.87
2019-02-18T04:38:40.863Z,36.00
2019-02-18T04:41:20.114Z,37.33
2019-02-18T04:43:59.852Z,39.78
2019-02-18T04:46:39.026Z,37.83
2019-02-18T04:49:18.918Z,41.45
2019-02-18T04:51:58.733Z,37.55
2019-02-18T04:54:37.940Z,36.38
2019-02-18T04:57:24.851Z,36.57
2019-02-18T05:00:05.003Z,39.13
2019-02-18T05:02:44.686Z,36.47
2019-02-18T05:05:24.598Z,37.17
2019-02-18T05:08:04.542Z,41.70
2019-02-18T05:10:43.945Z,39.57
2019-02-18T05:13:23.149Z,41.73
2019-02-18T05:16:03.117Z,42.40
2019-02-18T05:18:42.326Z,39.93
2019-02-18T05:21:22.218Z,36.38
2019-02-18T05:24:02.182Z,36.98
2019-02-18T05:26:42.015Z,39.23
2019-02-18T05:29:21.348Z,34.93
2019-02-18T05:32:01.216Z,37.13
2019-02-18T05:34:40.696Z,36.43
2019-02-18T05:37:20.034Z,38.95
2019-02-18T05:39:59.216Z,36.80
2019-02-18T05:42:38.640Z,36.57
2019-02-18T05:45:17.879Z,35.97
2019-02-18T05:47:57.114Z,32.60
2019-02-18T05:50:41.907Z,33.17
2019-02-18T05:53:21.096Z,29.13
2019-02-18T05:56:00.498Z,30.97
2019-02-18T05:58:39.848Z,34.87
2019-02-18T06:01:20.055Z,32.63
2019-02-18T06:04:00.160Z,26.67
2019-02-18T06:06:39.626Z,29.55
2019-02-18T06:09:29.064Z,32.17
2019-02-18T06:12:17.464Z,25.33
2019-02-18T06:14:56.660Z,39.03
2019-02-18T06:17:35.886Z,31.37
2019-02-18T06:20:15.761Z,36.23
2019-02-18T06:22:54.973Z,38.00
2019-02-18T06:25:34.994Z,34.83
2019-02-18T06:28:14.278Z,38.80
2019-02-18T06:30:54.958Z,51.03
2019-02-18T06:33:34.338Z,50.35
2019-02-18T06:36:26.497Z,47.58
2019-02-18T06:39:07.214Z,46.45
2019-02-18T06:41:51.080Z,48.00
2019-02-18T06:44:58.224Z,51.80
2019-02-18T06:47:37.556Z,48.25
2019-02-18T06:50:26.300Z,52.65
2019-02-18T06:53:05.579Z,50.10
2019-02-18T06:55:47.885Z,52.62
2019-02-18T06:58:48.271Z,53.10
2019-02-18T07:01:36.299Z,56.45
2019-02-18T07:04:21.965Z,58.60
2019-02-18T07:07:23.332Z,59.10
2019-02-18T07:10:06.643Z,59.20
2019-02-18T07:12:49.593Z,58.92
2019-02-18T07:15:31.507Z,58.17
2019-02-18T07:18:13.398Z,58.28
2019-02-18T07:20:52.822Z,60.83
2019-02-18T07:23:32.117Z,58.50
2019-02-18T07:26:13.050Z,55.03
2019-02-18T07:28:54.357Z,51.90
2019-02-18T07:31:35.288Z,52.78
2019-02-18T07:34:14.683Z,47.23
2019-02-18T07:36:53.927Z,52.93
2019-02-18T07:39:33.965Z,51.18
2019-02-18T07:42:13.377Z,54.45
2019-02-18T07:44:53.728Z,53.58
2019-02-18T07:47:33.011Z,53.10
2019-02-18T07:50:20.247Z,56.63
2019-02-18T07:52:53.377Z,58.65
2019-02-18T07:55:32.734Z,54.67
2019-02-18T07:58:12.111Z,57.40
2019-02-18T08:00:52.145Z,59.05
2019-02-18T08:03:31.514Z,58.35
2019-02-18T08:06:10.767Z,58.70
2019-02-18T08:08:55.441Z,60.12
2019-02-18T08:11:35.294Z,58.68
2019-02-18T08:14:15.042Z,59.38
2019-02-18T08:16:54.787Z,55.30
2019-02-18T08:19:34.625Z,51.85
2019-02-18T08:22:14.357Z,50.03
2019-02-18T08:24:54.317Z,54.75
2019-02-18T08:27:34.166Z,56.28
2019-02-18T08:30:14.185Z,52.73
2019-02-18T08:32:53.973Z,54.90
2019-02-18T08:35:33.840Z,54.67
2019-02-18T08:38:13.447Z,52.90
2019-02-18T08:40:53.119Z,53.23
2019-02-18T08:43:32.731Z,47.10
2019-02-18T08:46:12.277Z,53.73
2019-02-18T08:48:51.915Z,51.10
2019-02-18T08:51:31.455Z,49.10
2019-02-18T08:54:10.940Z,47.07
2019-02-18T08:56:50.454Z,55.47
2019-02-18T08:59:30.027Z,53.03
2019-02-18T09:02:09.763Z,52.00
2019-02-18T09:04:49.298Z,52.57
2019-02-18T09:07:28.813Z,44.13
2019-02-18T09:10:09.599Z,49.30
2019-02-18T09:12:49.084Z,47.00
2019-02-18T09:15:28.699Z,50.13
2019-02-18T09:18:08.235Z,49.87
2019-02-18T09:20:47.651Z,47.23
2019-02-18T09:23:35.087Z,51.23
2019-02-18T09:26:16.455Z,48.20
2019-02-18T09:28:56.010Z,53.30
2019-02-18T09:31:36.374Z,48.23
2019-02-18T09:34:16.018Z,50.30
2019-02-18T09:36:56.257Z,49.53
2019-02-18T09:39:37.328Z,49.53
2019-02-18T09:42:16.888Z,49.07
2019-02-18T09:44:56.305Z,46.50
2019-02-18T09:47:35.742Z,48.90
2019-02-18T09:50:15.228Z,48.90
2019-02-18T09:52:54.644Z,49.27
2019-02-18T09:55:34.052Z,47.57
2019-02-18T09:58:13.626Z,46.00
2019-02-18T10:00:55.100Z,53.53
2019-02-18T10:03:34.651Z,51.17
2019-02-18T10:06:14.132Z,44.80
2019-02-18T10:08:53.607Z,48.90
2019-02-18T10:11:35.495Z,49.33
2019-02-18T10:14:14.879Z,50.03
2019-02-18T10:16:54.398Z,50.37
2019-02-18T10:19:34.196Z,49.70
2019-02-18T10:22:13.596Z,45.97
2019-02-18T10:24:53.018Z,47.10
2019-02-18T10:27:34.146Z,45.03
2019-02-18T10:30:13.905Z,45.70
2019-02-18T10:32:53.424Z,43.70
2019-02-18T10:35:32.950Z,48.03
2019-02-18T10:38:12.502Z,47.80
2019-02-18T10:40:52.944Z,48.50
2019-02-18T10:43:32.921Z,45.50
2019-02-18T10:46:18.287Z,45.20
2019-02-18T10:49:00.410Z,52.60
2019-02-18T10:51:39.821Z,46.43
2019-02-18T10:54:19.607Z,45.97
2019-02-18T10:56:59.107Z,47.93
2019-02-18T10:59:38.676Z,48.00
2019-02-18T11:02:18.147Z,44.83
2019-02-18T11:04:58.959Z,45.60
2019-02-18T11:07:46.237Z,50.00
2019-02-18T11:10:27.347Z,44.23
2019-02-18T11:13:06.977Z,42.13
2019-02-18T11:15:46.392Z,47.07
2019-02-18T11:18:26.194Z,44.33
2019-02-18T11:21:05.937Z,48.33
2019-02-18T11:23:45.425Z,41.87
2019-02-18T11:26:24.995Z,46.40
2019-02-18T11:29:04.436Z,46.07
2019-02-18T11:31:44.034Z,49.50
2019-02-18T11:34:23.512Z,43.73
2019-02-18T11:37:03.068Z,46.10
2019-02-18T11:39:42.868Z,44.93
2019-02-18T11:42:22.396Z,47.07
2019-02-18T11:45:02.099Z,46.10
2019-02-18T11:47:41.707Z,47.97
2019-02-18T11:50:21.617Z,46.63
2019-02-18T11:53:01.223Z,45.00
2019-02-18T11:55:40.897Z,43.10
2019-02-18T11:58:20.568Z,44.53
2019-02-18T12:01:02.123Z,43.23
2019-02-18T12:03:41.737Z,46.33
2019-02-18T12:06:21.262Z,49.90
2019-02-18T12:09:00.908Z,46.90
2019-02-18T12:11:45.066Z,42.60
2019-02-18T12:14:24.615Z,44.53
2019-02-18T12:17:06.837Z,46.50
2019-02-18T12:19:46.927Z,43.23
2019-02-18T12:22:26.391Z,44.03
2019-02-18T12:25:06.138Z,41.93
2019-02-18T12:27:45.788Z,44.77
2019-02-18T12:30:25.351Z,43.17
2019-02-18T12:33:04.961Z,45.77
2019-02-18T12:35:44.573Z,46.47
2019-02-18T12:38:24.077Z,43.83
2019-02-18T12:41:03.511Z,43.43
2019-02-18T12:43:43.048Z,44.13
2019-02-18T12:46:22.525Z,43.60
2019-02-18T12:49:01.960Z,43.97
2019-02-18T12:51:41.429Z,41.80
2019-02-18T12:54:20.896Z,42.93
2019-02-18T12:57:03.021Z,42.07
2019-02-18T12:59:43.047Z,43.10
2019-02-18T13:02:23.101Z,42.27
2019-02-18T13:05:03.153Z,42.10
2019-02-18T13:07:44.237Z,40.60
2019-02-18T13:10:34.465Z,39.97
2019-02-18T13:13:05.308Z,40.80
2019-02-18T13:15:45.010Z,41.43
2019-02-18T13:18:24.668Z,40.93
2019-02-18T13:21:04.379Z,43.47
2019-02-18T13:23:44.113Z,43.20
2019-02-18T13:26:23.814Z,41.53
2019-02-18T13:29:03.589Z,40.67
2019-02-18T13:31:43.115Z,42.27
2019-02-18T13:34:38.915Z,44.17
2019-02-18T13:37:18.569Z,44.63
2019-02-18T13:39:58.069Z,42.77
2019-02-18T13:42:38.366Z,41.13
2019-02-18T13:45:17.906Z,42.67
2019-02-18T13:47:57.677Z,44.33
2019-02-18T13:50:37.327Z,44.37
2019-02-18T13:53:17.239Z,44.07
2019-02-18T13:55:56.950Z,44.57
2019-02-18T13:58:36.523Z,41.73
2019-02-18T14:01:16.737Z,48.20
2019-02-18T14:03:56.210Z,51.43
2019-02-18T14:06:35.933Z,39.87
2019-02-18T14:09:15.565Z,44.77
2019-02-18T14:11:55.102Z,39.50
2019-02-18T14:14:34.684Z,39.87
2019-02-18T14:17:17.054Z,43.93
2019-02-18T14:19:56.562Z,43.87
2019-02-18T14:22:36.047Z,40.80
2019-02-18T14:25:18.500Z,40.17
2019-02-18T14:27:58.155Z,43.00
2019-02-18T14:30:37.712Z,38.13
2019-02-18T14:33:17.167Z,40.80
2019-02-18T14:35:56.841Z,47.00
2019-02-18T14:38:36.367Z,43.97
2019-02-18T14:41:17.034Z,43.27
2019-02-18T14:43:56.598Z,40.20
2019-02-18T14:46:36.163Z,39.50
2019-02-18T14:49:16.791Z,41.77
2019-02-18T14:51:56.359Z,46.23
2019-02-18T14:54:35.931Z,43.40
2019-02-18T14:57:15.529Z,44.00
2019-02-18T14:59:55.422Z,38.23
2019-02-18T15:02:34.879Z,45.57
2019-02-18T15:05:14.471Z,42.20
2019-02-18T15:07:55.242Z,36.83
2019-02-18T15:10:34.872Z,42.03
2019-02-18T15:13:14.521Z,45.30
2019-02-18T15:15:56.541Z,39.83
2019-02-18T15:18:36.085Z,41.00
2019-02-18T15:21:15.583Z,36.93
2019-02-18T15:23:56.794Z,42.47
2019-02-18T15:26:36.447Z,40.37
2019-02-18T15:29:15.959Z,45.03
2019-02-18T15:31:55.527Z,42.73
2019-02-18T15:34:35.060Z,44.10
2019-02-18T15:37:14.601Z,41.67
2019-02-18T15:39:54.112Z,37.23
2019-02-18T15:42:41.552Z,40.10
2019-02-18T15:45:16.171Z,40.23
2019-02-18T15:48:01.561Z,43.75
2019-02-18T15:50:37.435Z,41.42
2019-02-18T15:53:17.240Z,41.18
2019-02-18T15:55:56.795Z,40.23
2019-02-18T15:58:36.738Z,37.95
2019-02-18T16:01:17.058Z,39.90
2019-02-18T16:03:56.890Z,40.00
2019-02-18T16:06:55.933Z,38.23
2019-02-18T16:09:35.741Z,38.13
2019-02-18T16:12:17.183Z,38.30
2019-02-18T16:14:57.202Z,39.35
2019-02-18T16:17:36.970Z,41.77
2019-02-18T16:20:17.088Z,40.35
2019-02-18T16:22:58.152Z,43.95
2019-02-18T16:25:38.160Z,39.55
2019-02-18T16:28:37.713Z,38.95
2019-02-18T16:31:17.534Z,33.78
2019-02-18T16:33:57.555Z,37.05
2019-02-18T16:36:37.250Z,37.40
2019-02-18T16:39:17.544Z,38.40
2019-02-18T16:41:57.350Z,35.35
2019-02-18T16:44:37.153Z,41.55
2019-02-18T16:47:17.903Z,40.75
2019-02-18T16:49:58.314Z,37.80
2019-02-18T16:52:38.281Z,41.98
2019-02-18T16:55:18.125Z,36.50
2019-02-18T16:57:57.908Z,39.98
2019-02-18T17:00:37.739Z,45.73
2019-02-18T17:03:17.533Z,41.05
2019-02-18T17:05:57.409Z,38.17
2019-02-18T17:08:37.511Z,42.58
2019-02-18T17:11:17.377Z,39.30
2019-02-18T17:14:00.890Z,40.58
2019-02-18T17:16:40.556Z,43.35
2019-02-18T17:19:21.352Z,36.13
2019-02-18T17:22:01.183Z,39.85
2019-02-18T17:24:41.110Z,43.33
2019-02-18T17:27:21.098Z,38.85
2019-02-18T17:30:00.958Z,40.08
2019-02-18T17:32:42.020Z,43.13
2019-02-18T17:35:21.881Z,42.50
2019-02-18T17:38:02.857Z,39.95
2019-02-18T17:40:44.255Z,40.50
2019-02-18T17:43:24.043Z,40.85
2019-02-18T17:46:04.026Z,39.88
2019-02-18T17:48:44.887Z,38.90
2019-02-18T17:51:25.034Z,43.92
2019-02-18T17:54:05.115Z,39.08
2019-02-18T17:56:45.395Z,37.78
2019-02-18T17:59:25.181Z,38.42
2019-02-18T18:02:05.175Z,39.53
2019-02-18T18:04:45.578Z,37.45
2019-02-18T18:07:25.577Z,40.35
2019-02-18T18:10:06.583Z,37.88
2019-02-18T18:12:48.097Z,38.00
2019-02-18T18:15:27.969Z,36.33
2019-02-18T18:18:08.070Z,39.55
2019-02-18T18:20:48.513Z,41.50
2019-02-18T18:23:28.606Z,42.08
2019-02-18T18:26:08.553Z,39.30
2019-02-18T18:28:48.579Z,38.38
2019-02-18T18:31:28.595Z,37.33
2019-02-18T18:34:08.713Z,40.70
2019-02-18T18:36:48.679Z,43.42
2019-02-18T18:39:28.665Z,41.95
2019-02-18T18:42:08.760Z,41.60
2019-02-18T18:44:48.564Z,38.70
2019-02-18T18:47:29.301Z,39.53
2019-02-18T18:50:13.157Z,41.33
2019-02-18T18:52:53.635Z,44.35
2019-02-18T18:55:33.595Z,44.20
2019-02-18T18:58:13.396Z,37.03
2019-02-18T19:00:53.743Z,36.73
2019-02-18T19:03:33.538Z,37.00
2019-02-18T19:06:14.888Z,37.30
2019-02-18T19:08:55.376Z,35.38
2019-02-18T19:11:35.432Z,34.33
2019-02-18T19:14:15.555Z,35.60
2019-02-18T19:16:56.099Z,35.90
2019-02-18T19:19:35.931Z,33.02
2019-02-18T19:22:16.296Z,36.13
2019-02-18T19:24:57.076Z,35.78
2019-02-18T19:27:37.123Z,34.55
2019-02-18T19:30:20.780Z,38.48
2019-02-18T19:33:01.261Z,36.60
2019-02-18T19:35:43.010Z,42.38
2019-02-18T19:38:23.096Z,39.78
2019-02-18T19:41:04.729Z,42.83
2019-02-18T19:43:50.168Z,42.60
2019-02-18T19:46:26.165Z,44.53
2019-02-18T19:49:06.215Z,43.30
2019-02-18T19:51:46.289Z,41.23
2019-02-18T19:54:26.337Z,45.03
2019-02-18T19:57:06.336Z,41.98
2019-02-18T19:59:46.457Z,42.80
2019-02-18T20:02:26.323Z,45.80
2019-02-18T20:05:07.177Z,39.75
2019-02-18T20:07:49.671Z,37.50
2019-02-18T20:10:29.506Z,43.50
2019-02-18T20:13:09.246Z,43.40
2019-02-18T20:15:51.291Z,39.73
2019-02-18T20:18:31.240Z,42.40
2019-02-18T20:21:11.105Z,45.63
2019-02-18T20:23:50.833Z,42.67
2019-02-18T20:26:30.729Z,44.75
2019-02-18T20:29:10.728Z,44.48
2019-02-18T20:31:50.585Z,42.80
2019-02-18T20:34:31.724Z,45.05
2019-02-18T20:37:11.525Z,46.05
2019-02-18T20:39:54.660Z,42.15
2019-02-18T20:42:34.490Z,39.88
2019-02-18T20:45:14.690Z,45.70
2019-02-18T20:47:55.455Z,40.48
2019-02-18T20:50:35.315Z,44.83
2019-02-18T20:53:16.424Z,41.55
2019-02-18T20:55:56.237Z,38.70
2019-02-18T20:58:40.560Z,42.60
2019-02-18T21:01:20.544Z,38.70
2019-02-18T21:04:00.483Z,44.73
2019-02-18T21:06:41.029Z,45.63
2019-02-18T21:09:20.876Z,48.40
2019-02-18T21:12:00.800Z,41.45
2019-02-18T21:14:40.649Z,40.23
2019-02-18T21:17:20.740Z,46.75
2019-02-18T21:20:00.761Z,38.80
2019-02-18T21:22:40.823Z,38.78
2019-02-18T21:25:20.730Z,39.33
2019-02-18T21:28:00.495Z,39.03
2019-02-18T21:30:40.225Z,37.00
2019-02-18T21:33:20.266Z,39.67
2019-02-18T21:36:02.733Z,42.00
2019-02-18T21:38:42.688Z,41.10
2019-02-18T21:41:23.469Z,37.60
2019-02-18T21:44:03.366Z,42.48
2019-02-18T21:46:43.387Z,46.73
2019-02-18T21:49:31.454Z,45.65
2019-02-18T21:52:11.405Z,41.75
2019-02-18T21:54:52.413Z,37.20
2019-02-18T21:57:32.421Z,35.33
2019-02-18T22:00:18.432Z,35.60
2019-02-18T22:02:58.209Z,40.92
2019-02-18T22:05:38.051Z,36.63
2019-02-18T22:08:17.898Z,39.65
2019-02-18T22:10:57.851Z,38.80
2019-02-18T22:13:37.627Z,38.33
2019-02-18T22:16:17.388Z,42.23
2019-02-18T22:18:57.173Z,42.38
2019-02-18T22:21:37.594Z,48.38
2019-02-18T22:24:17.408Z,44.05
2019-02-18T22:26:57.347Z,37.30
2019-02-18T22:29:37.808Z,35.48
2019-02-18T22:32:17.778Z,35.95
2019-02-18T22:34:57.859Z,37.95
2019-02-18T22:37:37.764Z,34.95
2019-02-18T22:40:19.416Z,37.20
2019-02-18T22:42:59.505Z,38.13
2019-02-18T22:45:39.228Z,33.78
2019-02-18T22:48:19.201Z,35.90
2019-02-18T22:50:59.052Z,35.45
2019-02-18T22:53:39.032Z,32.55
2019-02-18T22:56:20.498Z,36.45
2019-02-18T22:59:01.106Z,35.45
2019-02-18T23:01:42.581Z,35.52
2019-02-18T23:04:22.542Z,36.55
2019-02-18T23:07:03.519Z,38.20
2019-02-18T23:09:43.333Z,35.78
2019-02-18T23:12:23.446Z,37.88
2019-02-18T23:15:03.327Z,35.43
2019-02-18T23:17:43.059Z,33.92
2019-02-18T23:20:23.498Z,34.63
2019-02-18T23:23:03.359Z,34.48
2019-02-18T23:25:43.124Z,35.28
2019-02-18T23:28:22.364Z,37.13
2019-02-18T23:31:01.875Z,35.33
2019-02-18T23:33:41.903Z,40.45
2019-02-18T23:36:23.056Z,39.20
2019-02-18T23:39:02.519Z,35.25
2019-02-18T23:41:44.252Z,34.88
2019-02-18T23:44:23.608Z,37.85
2019-02-18T23:47:04.461Z,37.35
2019-02-18T23:49:44.466Z,35.90
2019-02-18T23:52:23.776Z,30.88
2019-02-18T23:55:03.093Z,35.25
2019-02-18T23:57:42.360Z,29.92
